Terminal Aerodrome Forecast
Issued by NWS

Home | Current Version | Previous Version | Text Only | Print | Product List | Glossary On
Versions: 1 2 3 4 5 6 7 8 9 10 11 12 13 14 15 16 17 18 19 20 21 22 23 24 25 26 27
000
FTUS41 KPHI 180520
TAFPNE
TAF
KPNE 180520Z 1806/1906 08004KT 4SM -SN BKN025 OVC040
      TEMPO 1806/1809 2SM -SN BR OVC012
     FM180900 07004KT 2SM -SN OVC010
      TEMPO 1809/1812 4SM -SN OVC006
     FM181200 VRB04KT 6SM BR OVC008
     FM181600 25005KT P6SM BKN012
     FM182000 28005KT P6SM BKN025
     FM190000 32005KT P6SM SCT015=

USA.gov is the U.S. government's official web portal to all federal, state and local government web resources and services.